createdAt,value
2018-09-19T00:01:20.022Z,8.40
2018-09-19T00:03:48.340Z,9.60
2018-09-19T00:06:16.668Z,8.90
2018-09-19T00:08:45.000Z,8.40
2018-09-19T00:11:13.301Z,8.67
2018-09-19T00:13:41.657Z,8.77
2018-09-19T00:16:09.968Z,8.80
2018-09-19T00:18:38.291Z,9.27
2018-09-19T00:21:06.595Z,8.80
2018-09-19T00:23:35.042Z,9.03
2018-09-19T00:26:03.362Z,8.80
2018-09-19T00:28:31.660Z,8.23
2018-09-19T00:31:00.000Z,9.80
2018-09-19T00:33:28.305Z,11.23
2018-09-19T00:35:56.619Z,8.50
2018-09-19T00:38:24.928Z,9.60
2018-09-19T00:40:53.259Z,8.33
2018-09-19T00:43:21.553Z,8.67
2018-09-19T00:45:49.912Z,8.67
2018-09-19T00:48:18.203Z,9.23
2018-09-19T00:50:46.516Z,9.20
2018-09-19T00:53:14.812Z,9.70
2018-09-19T00:55:43.135Z,8.87
2018-09-19T00:58:11.423Z,9.17
2018-09-19T01:00:39.741Z,8.50
2018-09-19T01:03:08.061Z,9.50
2018-09-19T01:05:36.383Z,8.77
2018-09-19T01:08:04.688Z,9.23
2018-09-19T01:10:33.044Z,9.30
2018-09-19T01:13:01.342Z,10.50
2018-09-19T01:15:29.664Z,11.33
2018-09-19T01:17:58.097Z,8.57
2018-09-19T01:20:26.415Z,9.17
2018-09-19T01:22:54.720Z,11.03
2018-09-19T01:25:23.038Z,10.67
2018-09-19T01:27:51.331Z,9.20
2018-09-19T01:30:19.645Z,9.17
2018-09-19T01:32:47.947Z,8.93
2018-09-19T01:35:16.259Z,8.20
2018-09-19T01:37:44.579Z,8.27
2018-09-19T01:40:12.897Z,8.90
2018-09-19T01:42:41.201Z,8.70
2018-09-19T01:45:09.516Z,9.10
2018-09-19T01:47:37.892Z,9.30
2018-09-19T01:50:06.181Z,8.03
2018-09-19T01:52:34.480Z,7.80
2018-09-19T01:55:02.799Z,10.07
2018-09-19T01:57:31.089Z,7.90
2018-09-19T01:59:59.452Z,8.07
2018-09-19T02:02:27.743Z,8.50
2018-09-19T02:04:56.064Z,9.23
2018-09-19T02:07:24.351Z,9.67
2018-09-19T02:09:52.671Z,10.93
2018-09-19T02:12:20.969Z,10.67
2018-09-19T02:14:49.291Z,10.30
2018-09-19T02:17:17.596Z,8.90
2018-09-19T02:19:45.917Z,8.50
2018-09-19T02:22:14.208Z,8.63
2018-09-19T02:24:42.574Z,9.10
2018-09-19T02:27:10.867Z,9.40
2018-09-19T02:29:39.183Z,9.10
2018-09-19T02:32:07.495Z,10.27
2018-09-19T02:34:35.791Z,7.93
2018-09-19T02:37:04.151Z,10.27
2018-09-19T02:39:32.451Z,10.77
2018-09-19T02:42:00.784Z,10.37
2018-09-19T02:44:29.083Z,9.23
2018-09-19T02:46:57.400Z,9.20
2018-09-19T02:49:25.699Z,10.90
2018-09-19T02:51:57.577Z,9.67
2018-09-19T02:54:27.076Z,11.00
2018-09-19T02:56:55.391Z,9.67
2018-09-19T02:59:23.684Z,10.60
2018-09-19T03:01:52.006Z,10.50
2018-09-19T03:04:20.304Z,10.33
2018-09-19T03:06:48.630Z,9.30
2018-09-19T03:09:16.935Z,10.60
2018-09-19T03:11:45.245Z,10.43
2018-09-19T03:14:13.548Z,10.93
2018-09-19T03:16:41.879Z,10.60
2018-09-19T03:19:10.183Z,10.67
2018-09-19T03:21:38.504Z,10.70
2018-09-19T03:24:07.011Z,12.33
2018-09-19T03:26:35.334Z,10.67
2018-09-19T03:29:03.628Z,10.10
2018-09-19T03:31:31.948Z,11.00
2018-09-19T03:34:00.274Z,10.60
2018-09-19T03:36:28.605Z,10.47
2018-09-19T03:38:56.934Z,10.50
2018-09-19T03:41:25.260Z,10.10
2018-09-19T03:43:53.656Z,9.30
2018-09-19T03:46:21.981Z,9.40
2018-09-19T03:48:50.306Z,8.70
2018-09-19T03:51:18.619Z,10.03
2018-09-19T03:53:46.978Z,9.00
2018-09-19T03:56:15.297Z,9.47
2018-09-19T03:58:43.596Z,8.93
2018-09-19T04:01:11.906Z,9.37
2018-09-19T04:03:40.203Z,9.27
2018-09-19T04:06:08.534Z,9.17
2018-09-19T04:08:36.827Z,8.93
2018-09-19T04:11:05.140Z,8.57
2018-09-19T04:13:33.440Z,8.67
2018-09-19T04:16:01.756Z,9.70
2018-09-19T04:18:30.054Z,9.20
2018-09-19T04:20:58.373Z,8.60
2018-09-19T04:23:26.678Z,8.80
2018-09-19T04:25:55.005Z,8.77
2018-09-19T04:28:23.299Z,8.80
2018-09-19T04:30:51.621Z,8.23
2018-09-19T04:33:19.922Z,9.00
2018-09-19T04:35:48.231Z,9.70
2018-09-19T04:38:16.556Z,10.40
2018-09-19T04:40:44.875Z,10.17
2018-09-19T04:43:13.175Z,10.43
2018-09-19T04:45:41.511Z,11.53
2018-09-19T04:48:09.832Z,10.80
2018-09-19T04:50:38.134Z,9.73
2018-09-19T04:53:06.544Z,9.20
2018-09-19T04:55:34.899Z,8.50
2018-09-19T04:58:03.231Z,9.60
2018-09-19T05:00:31.562Z,10.57
2018-09-19T05:02:59.876Z,10.33
2018-09-19T05:05:28.171Z,9.70
2018-09-19T05:07:56.503Z,11.43
2018-09-19T05:10:24.796Z,12.57
2018-09-19T05:12:53.115Z,16.50
2018-09-19T05:15:21.408Z,15.50
2018-09-19T05:17:49.731Z,14.40
2018-09-19T05:20:18.023Z,14.80
2018-09-19T05:22:46.336Z,16.80
2018-09-19T05:25:14.683Z,11.95
2018-09-19T05:27:43.104Z,11.80
2018-09-19T05:30:11.416Z,11.50
2018-09-19T05:32:39.742Z,12.80
2018-09-19T05:35:08.045Z,11.40
2018-09-19T05:37:36.378Z,11.13
2018-09-19T05:40:04.695Z,11.67
2018-09-19T05:42:33.007Z,13.87
2018-09-19T05:45:01.589Z,12.50
2018-09-19T05:47:30.224Z,13.13
2018-09-19T05:49:58.523Z,11.60
2018-09-19T05:52:27.253Z,11.40
2018-09-19T05:54:57.308Z,11.27
2018-09-19T05:57:26.019Z,10.60
2018-09-19T05:59:54.311Z,10.73
2018-09-19T06:02:22.624Z,10.33
2018-09-19T06:04:50.935Z,11.60
2018-09-19T06:07:19.262Z,11.43
2018-09-19T06:09:47.863Z,9.97
2018-09-19T06:12:16.219Z,10.80
2018-09-19T06:14:44.524Z,12.07
2018-09-19T06:17:12.886Z,12.53
2018-09-19T06:19:41.183Z,13.00
2018-09-19T06:22:09.614Z,12.40
2018-09-19T06:24:38.221Z,12.50
2018-09-19T06:27:06.607Z,11.60
2018-09-19T06:29:35.014Z,12.30
2018-09-19T06:32:03.258Z,11.90
2018-09-19T06:34:31.568Z,10.53
2018-09-19T06:37:00.019Z,10.97
2018-09-19T06:39:28.236Z,9.63
2018-09-19T06:41:56.593Z,9.23
2018-09-19T06:44:24.890Z,12.50
2018-09-19T06:46:53.297Z,13.50
2018-09-19T06:49:21.539Z,8.27
2018-09-19T06:51:49.865Z,8.63
2018-09-19T06:54:18.194Z,11.30
2018-09-19T06:56:46.507Z,12.63
2018-09-19T06:59:14.790Z,7.87
2018-09-19T07:01:43.088Z,14.17
2018-09-19T07:04:11.788Z,13.47
2018-09-19T07:06:40.086Z,12.50
2018-09-19T07:09:09.493Z,12.17
2018-09-19T07:11:37.792Z,12.90
2018-09-19T07:14:06.313Z,13.20
2018-09-19T07:16:34.632Z,12.60
2018-09-19T07:19:03.010Z,12.70
2018-09-19T07:21:31.331Z,12.40
2018-09-19T07:23:59.648Z,12.63
2018-09-19T07:26:27.945Z,11.80
2018-09-19T07:28:57.336Z,10.27
2018-09-19T07:31:25.649Z,10.60
2018-09-19T07:33:53.974Z,11.73
2018-09-19T07:36:22.308Z,10.70
2018-09-19T07:38:50.720Z,11.03
2018-09-19T07:41:19.016Z,11.40
2018-09-19T07:43:47.336Z,11.80
2018-09-19T07:46:15.639Z,10.70
2018-09-19T07:48:43.952Z,12.40
2018-09-19T07:51:12.249Z,10.60
2018-09-19T07:53:41.344Z,12.30
2018-09-19T07:56:09.633Z,12.60
2018-09-19T07:58:37.954Z,11.80
2018-09-19T08:01:06.319Z,11.67
2018-09-19T08:03:34.655Z,11.90
2018-09-19T08:06:02.951Z,10.10
2018-09-19T08:08:31.269Z,11.77
2018-09-19T08:10:59.571Z,10.07
2018-09-19T08:13:27.894Z,9.57
2018-09-19T08:15:56.195Z,9.23
2018-09-19T08:18:24.506Z,10.53
2018-09-19T08:20:52.798Z,9.00
2018-09-19T08:23:21.114Z,9.40
2018-09-19T08:25:49.409Z,10.27
2018-09-19T08:28:17.742Z,9.47
2018-09-19T08:30:46.036Z,10.50
2018-09-19T08:33:14.450Z,10.27
2018-09-19T08:35:43.844Z,11.30
2018-09-19T08:38:12.180Z,10.00
2018-09-19T08:40:40.465Z,9.70
2018-09-19T08:43:08.782Z,9.40
2018-09-19T08:45:37.084Z,10.00
2018-09-19T08:48:05.409Z,9.87
2018-09-19T08:50:33.768Z,8.23
2018-09-19T08:53:02.655Z,9.80
2018-09-19T08:55:31.126Z,8.20
2018-09-19T08:57:59.744Z,8.20
2018-09-19T09:00:28.037Z,8.67
2018-09-19T09:02:56.347Z,8.40
2018-09-19T09:05:24.714Z,8.50
2018-09-19T09:07:52.965Z,7.73
2018-09-19T09:10:21.275Z,8.80
2018-09-19T09:12:49.681Z,8.17
2018-09-19T09:15:17.996Z,8.47
2018-09-19T09:17:46.315Z,7.30
2018-09-19T09:20:14.628Z,7.43
2018-09-19T09:22:42.920Z,7.10
2018-09-19T09:25:11.311Z,6.90
2018-09-19T09:27:39.656Z,6.67
2018-09-19T09:30:07.957Z,7.30
2018-09-19T09:32:36.250Z,7.30
2018-09-19T09:35:04.620Z,7.70
2018-09-19T09:37:32.941Z,8.13
2018-09-19T09:40:01.258Z,7.60
2018-09-19T09:42:29.557Z,7.60
2018-09-19T09:44:57.866Z,8.50
2018-09-19T09:47:26.272Z,7.87
2018-09-19T09:49:54.591Z,8.73
2018-09-19T09:52:22.972Z,7.50
2018-09-19T09:54:52.136Z,7.57
2018-09-19T09:57:20.456Z,7.20
2018-09-19T09:59:48.763Z,6.43
2018-09-19T10:02:17.056Z,6.90
2018-09-19T10:04:45.375Z,6.37
2018-09-19T10:07:13.673Z,4.90
2018-09-19T10:09:41.993Z,5.27
2018-09-19T10:12:10.284Z,4.40
2018-09-19T10:14:38.591Z,4.20
2018-09-19T10:17:06.924Z,4.63
2018-09-19T10:19:35.240Z,3.90
2018-09-19T10:22:03.606Z,4.40
2018-09-19T10:24:31.916Z,4.43
2018-09-19T10:27:00.202Z,4.30
2018-09-19T10:29:28.555Z,4.40
2018-09-19T10:31:56.867Z,4.00
2018-09-19T10:34:25.171Z,4.30
2018-09-19T10:36:53.485Z,4.13
2018-09-19T10:39:21.814Z,4.10
2018-09-19T10:41:50.135Z,2.80
2018-09-19T10:44:19.009Z,3.30
2018-09-19T10:46:47.326Z,3.30
2018-09-19T10:49:15.652Z,2.87
2018-09-19T10:51:44.054Z,3.13
2018-09-19T10:54:12.461Z,3.10
2018-09-19T10:56:40.881Z,2.67
2018-09-19T10:59:09.164Z,3.13
2018-09-19T11:01:37.500Z,3.70
2018-09-19T11:04:05.896Z,3.00
2018-09-19T11:06:34.204Z,3.50
2018-09-19T11:09:02.512Z,3.00
2018-09-19T11:11:30.824Z,2.50
2018-09-19T11:13:59.117Z,2.87
2018-09-19T11:16:27.424Z,3.20
2018-09-19T11:18:55.716Z,2.87
2018-09-19T11:21:24.024Z,2.60
2018-09-19T11:23:52.316Z,3.50
2018-09-19T11:26:20.644Z,2.90
2018-09-19T11:28:48.940Z,2.90
2018-09-19T11:31:17.251Z,3.37
2018-09-19T11:33:45.569Z,2.50
2018-09-19T11:36:13.901Z,2.60
2018-09-19T11:38:42.221Z,2.13
2018-09-19T11:41:10.547Z,2.93
2018-09-19T11:43:39.096Z,2.90
2018-09-19T11:46:07.412Z,2.63
2018-09-19T11:48:35.725Z,2.50
2018-09-19T11:51:04.044Z,2.40
2018-09-19T11:53:32.360Z,2.43
2018-09-19T11:56:00.868Z,2.27
2018-09-19T11:58:30.165Z,2.70
2018-09-19T12:00:58.880Z,1.83
2018-09-19T12:03:27.664Z,2.43
2018-09-19T12:05:55.973Z,2.07
2018-09-19T12:08:24.259Z,2.03
2018-09-19T12:10:52.568Z,2.40
2018-09-19T12:13:20.861Z,2.20
2018-09-19T12:15:49.165Z,2.90
2018-09-19T12:18:17.447Z,2.50
2018-09-19T12:20:45.852Z,2.60
2018-09-19T12:23:14.140Z,2.30
2018-09-19T12:25:42.456Z,2.90
2018-09-19T12:28:10.756Z,3.00
2018-09-19T12:30:39.880Z,2.63
2018-09-19T12:33:08.185Z,3.33
2018-09-19T12:35:36.543Z,2.87
2018-09-19T12:38:04.916Z,3.23
2018-09-19T12:40:33.221Z,3.30
2018-09-19T12:43:01.512Z,3.10
2018-09-19T12:45:29.823Z,3.00
2018-09-19T12:47:58.111Z,3.53
2018-09-19T12:50:26.417Z,3.70
2018-09-19T12:52:54.704Z,3.33
2018-09-19T12:55:22.987Z,2.93
2018-09-19T12:57:51.283Z,3.50
2018-09-19T13:00:19.566Z,3.20
2018-09-19T13:02:47.891Z,3.47
2018-09-19T13:05:16.176Z,3.60
2018-09-19T13:07:44.488Z,3.43
2018-09-19T13:10:12.782Z,3.40
2018-09-19T13:12:41.096Z,3.80
2018-09-19T13:15:09.402Z,3.13
2018-09-19T13:17:37.724Z,3.63
2018-09-19T13:20:06.151Z,3.80
2018-09-19T13:22:34.456Z,3.03
2018-09-19T13:25:02.847Z,3.23
2018-09-19T13:27:31.255Z,3.33
2018-09-19T13:29:59.467Z,3.20
2018-09-19T13:32:27.815Z,3.53
2018-09-19T13:34:56.104Z,3.93
2018-09-19T13:37:24.432Z,3.73
2018-09-19T13:39:52.724Z,3.53
2018-09-19T13:42:21.040Z,3.73
2018-09-19T13:44:49.828Z,3.83
2018-09-19T13:47:18.132Z,3.17
2018-09-19T13:49:49.812Z,3.03
2018-09-19T13:52:18.120Z,3.80
2018-09-19T13:54:46.412Z,3.77
2018-09-19T13:57:14.732Z,3.70
2018-09-19T13:59:43.011Z,3.10
2018-09-19T14:02:11.320Z,3.67
2018-09-19T14:04:39.611Z,3.10
2018-09-19T14:07:07.965Z,3.83
2018-09-19T14:09:36.247Z,3.80
2018-09-19T14:12:04.583Z,4.20
2018-09-19T14:14:32.868Z,3.83
2018-09-19T14:17:01.184Z,4.50
2018-09-19T14:19:29.468Z,4.13
2018-09-19T14:21:57.785Z,4.00
2018-09-19T14:24:26.087Z,4.33
2018-09-19T14:26:54.392Z,3.80
2018-09-19T14:29:22.692Z,4.50
2018-09-19T14:31:51.099Z,4.20
2018-09-19T14:34:19.380Z,3.53
2018-09-19T14:36:47.687Z,4.10
2018-09-19T14:39:16.795Z,5.53
2018-09-19T14:41:45.291Z,4.33
2018-09-19T14:44:15.596Z,3.90
2018-09-19T14:46:44.317Z,3.53
2018-09-19T14:49:12.604Z,4.20
2018-09-19T14:51:41.031Z,3.90
2018-09-19T14:54:09.414Z,4.10
2018-09-19T14:56:37.783Z,4.20
2018-09-19T14:59:06.325Z,4.47
2018-09-19T15:01:34.640Z,3.97
2018-09-19T15:04:02.928Z,4.47
2018-09-19T15:06:31.252Z,3.77
2018-09-19T15:08:59.548Z,3.90
2018-09-19T15:11:27.832Z,3.80
2018-09-19T15:13:56.139Z,4.00
2018-09-19T15:16:24.564Z,3.60
2018-09-19T15:18:53.089Z,4.23
2018-09-19T15:21:21.420Z,3.90
2018-09-19T15:23:50.408Z,4.30
2018-09-19T15:26:19.141Z,4.20
2018-09-19T15:28:47.592Z,4.37
2018-09-19T15:31:15.887Z,4.03
2018-09-19T15:33:44.297Z,3.70
2018-09-19T15:36:12.864Z,4.00
2018-09-19T15:38:41.320Z,3.73
2018-09-19T15:41:09.608Z,3.37
2018-09-19T15:43:37.916Z,3.93
2018-09-19T15:46:06.200Z,3.83
2018-09-19T15:48:34.554Z,4.60
2018-09-19T15:51:02.815Z,3.70
2018-09-19T15:53:31.999Z,4.30
2018-09-19T15:56:01.397Z,3.83
2018-09-19T15:58:29.720Z,4.70
2018-09-19T16:00:58.013Z,4.30
2018-09-19T16:03:27.108Z,4.10
2018-09-19T16:05:55.463Z,4.30
2018-09-19T16:08:24.197Z,7.30
2018-09-19T16:10:52.590Z,5.27
2018-09-19T16:13:20.908Z,10.40
2018-09-19T16:15:49.253Z,6.40
2018-09-19T16:18:17.574Z,9.70
2018-09-19T16:20:45.868Z,6.70
2018-09-19T16:23:14.196Z,5.70
2018-09-19T16:25:42.484Z,6.23
2018-09-19T16:28:10.796Z,5.07
2018-09-19T16:30:39.086Z,4.90
2018-09-19T16:33:07.392Z,5.20
2018-09-19T16:35:35.680Z,6.30
2018-09-19T16:38:04.055Z,5.63
2018-09-19T16:40:32.312Z,5.37
2018-09-19T16:43:00.674Z,5.00
2018-09-19T16:45:28.976Z,5.70
2018-09-19T16:47:57.288Z,6.20
2018-09-19T16:50:25.644Z,6.33
2018-09-19T16:52:53.991Z,5.00
2018-09-19T16:55:22.285Z,5.47
2018-09-19T16:57:50.634Z,4.73
2018-09-19T17:00:18.916Z,4.50
2018-09-19T17:02:47.217Z,4.73
2018-09-19T17:05:15.508Z,5.03
2018-09-19T17:07:43.848Z,4.23
2018-09-19T17:10:12.166Z,4.63
2018-09-19T17:12:40.578Z,6.03
2018-09-19T17:15:08.937Z,5.33
2018-09-19T17:17:37.780Z,5.30
2018-09-19T17:20:06.455Z,5.17
2018-09-19T17:22:34.759Z,5.50
2018-09-19T17:25:03.049Z,4.83
2018-09-19T17:27:31.336Z,4.93
2018-09-19T17:29:59.645Z,5.63
2018-09-19T17:32:27.934Z,4.80
2018-09-19T17:34:56.240Z,4.30
2018-09-19T17:37:24.900Z,4.97
2018-09-19T17:39:53.190Z,5.67
2018-09-19T17:42:21.476Z,4.90
2018-09-19T17:44:49.784Z,6.20
2018-09-19T17:47:18.092Z,5.00
2018-09-19T17:49:46.466Z,5.27
2018-09-19T17:52:14.738Z,5.20
2018-09-19T17:54:43.044Z,5.10
2018-09-19T17:57:11.336Z,6.30
2018-09-19T17:59:39.643Z,5.50
2018-09-19T18:02:07.936Z,5.23
2018-09-19T18:04:36.241Z,4.73
2018-09-19T18:07:04.548Z,4.80
2018-09-19T18:09:32.884Z,4.40
2018-09-19T18:12:01.183Z,4.73
2018-09-19T18:14:29.498Z,5.30
2018-09-19T18:16:57.791Z,5.00
2018-09-19T18:19:26.105Z,4.90
2018-09-19T18:21:54.392Z,5.70
2018-09-19T18:24:22.696Z,4.90
2018-09-19T18:26:50.979Z,5.57
2018-09-19T18:29:19.293Z,4.37
2018-09-19T18:31:47.588Z,5.00
2018-09-19T18:34:16.077Z,5.23
2018-09-19T18:36:44.364Z,5.20
2018-09-19T18:39:12.688Z,4.83
2018-09-19T18:41:40.987Z,5.27
2018-09-19T18:44:09.300Z,4.90
2018-09-19T18:46:37.592Z,5.27
2018-09-19T18:49:06.889Z,5.40
2018-09-19T18:51:35.355Z,4.57
2018-09-19T18:54:03.659Z,5.57
2018-09-19T18:56:31.947Z,5.03
2018-09-19T18:59:00.280Z,6.10
2018-09-19T19:01:28.569Z,6.03
2018-09-19T19:03:56.880Z,6.40
2018-09-19T19:06:25.167Z,6.80
2018-09-19T19:08:53.547Z,5.40
2018-09-19T19:11:21.848Z,7.03
2018-09-19T19:13:50.155Z,7.10
2018-09-19T19:16:18.673Z,6.10
2018-09-19T19:18:47.057Z,6.07
2018-09-19T19:21:15.352Z,6.30
2018-09-19T19:23:43.684Z,6.80
2018-09-19T19:26:11.968Z,6.20
2018-09-19T19:28:40.272Z,6.17
2018-09-19T19:31:08.562Z,6.60
2018-09-19T19:33:36.872Z,6.17
2018-09-19T19:36:05.160Z,6.60
2018-09-19T19:38:33.468Z,6.30
2018-09-19T19:41:01.775Z,6.30
2018-09-19T19:43:30.063Z,5.77
2018-09-19T19:45:58.376Z,6.10
2018-09-19T19:48:27.203Z,6.80
2018-09-19T19:50:55.599Z,6.17
2018-09-19T19:53:23.913Z,6.10
2018-09-19T19:55:52.216Z,6.10
2018-09-19T19:58:20.547Z,5.53
2018-09-19T20:00:48.892Z,6.47
2018-09-19T20:03:17.252Z,5.50
2018-09-19T20:05:45.588Z,5.63
2018-09-19T20:08:13.875Z,6.30
2018-09-19T20:10:43.452Z,6.07
2018-09-19T20:13:11.715Z,6.70
2018-09-19T20:15:40.033Z,6.63
2018-09-19T20:18:08.324Z,5.80
2018-09-19T20:20:36.645Z,6.87
2018-09-19T20:23:04.979Z,7.20
2018-09-19T20:25:33.296Z,6.67
2018-09-19T20:28:01.592Z,5.90
2018-09-19T20:30:29.904Z,6.10
2018-09-19T20:32:58.192Z,6.10
2018-09-19T20:35:26.504Z,5.20
2018-09-19T20:37:54.820Z,5.90
2018-09-19T20:40:24.140Z,6.07
2018-09-19T20:42:52.449Z,5.70
2018-09-19T20:45:20.768Z,6.40
2018-09-19T20:47:49.056Z,5.60
2018-09-19T20:50:17.408Z,6.40
2018-09-19T20:52:45.776Z,6.90
2018-09-19T20:55:14.080Z,7.00
2018-09-19T20:57:42.364Z,6.10
2018-09-19T21:00:10.668Z,6.20
2018-09-19T21:02:38.956Z,6.00
2018-09-19T21:05:07.284Z,6.27
2018-09-19T21:07:35.612Z,6.53
2018-09-19T21:10:04.017Z,5.93
2018-09-19T21:12:32.396Z,6.03
2018-09-19T21:15:00.704Z,6.23
2018-09-19T21:17:29.016Z,6.50
2018-09-19T21:19:57.311Z,6.27
2018-09-19T21:22:25.779Z,6.27
2018-09-19T21:24:53.941Z,6.67
2018-09-19T21:27:22.252Z,6.43
2018-09-19T21:29:50.540Z,6.33
2018-09-19T21:32:18.885Z,6.90
2018-09-19T21:34:47.162Z,5.60
2018-09-19T21:37:15.497Z,6.17
2018-09-19T21:39:43.793Z,6.17
2018-09-19T21:42:12.108Z,5.93
2018-09-19T21:44:40.399Z,6.00
2018-09-19T21:47:08.724Z,5.83
2018-09-19T21:49:37.057Z,5.97
2018-09-19T21:52:05.392Z,6.50
2018-09-19T21:54:33.680Z,6.30
2018-09-19T21:57:01.984Z,6.60
2018-09-19T21:59:30.324Z,5.87
2018-09-19T22:02:00.616Z,5.50
2018-09-19T22:04:29.092Z,6.10
2018-09-19T22:06:57.509Z,5.70
2018-09-19T22:09:25.816Z,5.37
2018-09-19T22:11:54.130Z,5.40
2018-09-19T22:14:22.432Z,6.03
2018-09-19T22:16:50.756Z,6.13
2018-09-19T22:19:19.053Z,5.50
2018-09-19T22:21:47.360Z,5.20
2018-09-19T22:24:15.652Z,5.10
2018-09-19T22:26:43.960Z,5.23
2018-09-19T22:29:12.247Z,5.03
2018-09-19T22:31:40.552Z,5.67
2018-09-19T22:34:08.844Z,6.03
2018-09-19T22:36:37.160Z,5.40
2018-09-19T22:39:07.680Z,5.80
2018-09-19T22:41:36.000Z,5.57
2018-09-19T22:44:04.292Z,5.47
2018-09-19T22:46:32.598Z,5.07
2018-09-19T22:49:00.885Z,5.97
2018-09-19T22:51:29.193Z,4.53
2018-09-19T22:53:57.497Z,5.93
2018-09-19T22:56:25.807Z,5.10
2018-09-19T22:58:54.102Z,6.20
2018-09-19T23:01:22.416Z,4.70
2018-09-19T23:03:50.716Z,5.27
2018-09-19T23:06:19.029Z,4.70
2018-09-19T23:08:47.417Z,5.57
2018-09-19T23:11:15.732Z,5.60
2018-09-19T23:13:44.043Z,4.60
2018-09-19T23:16:12.344Z,5.50
2018-09-19T23:18:40.647Z,5.27
2018-09-19T23:21:08.944Z,4.80
2018-09-19T23:23:37.256Z,5.47
2018-09-19T23:26:05.576Z,5.27
2018-09-19T23:28:33.890Z,5.70
2018-09-19T23:31:02.175Z,4.50
2018-09-19T23:33:30.494Z,5.00
2018-09-19T23:35:58.784Z,4.97
2018-09-19T23:38:27.120Z,4.80
2018-09-19T23:40:55.412Z,5.10
2018-09-19T23:43:23.736Z,5.70
2018-09-19T23:45:52.028Z,4.63
2018-09-19T23:48:20.371Z,5.33
2018-09-19T23:50:48.664Z,5.37
2018-09-19T23:55:51.544Z,4.87
2018-09-19T23:58:19.847Z,4.50
